Time;durP1;ratioP1;P1;durP2;ratioP2;P2;SDS_P1;SDS_P2;PMS_P1;PMS_P2;Temp;Humidity;BMP_temperature;BMP_pressure;BME280_temperature;BME280_humidity;BME280_pressure;Samples;Min_cycle;Max_cycle;Signal;HPM_P1;HPM_P2
2023/11/07 00:00:00;;;;;;;1.40;0.70;;;;;;;17.33;47.10;100460.15;106078;1256;61352;-83
2023/11/07 00:02:33;;;;;;;1.20;0.60;;;;;;;17.07;47.67;100461.72;106209;1258;74621;-86
2023/11/07 00:05:02;;;;;;;1.40;0.90;;;;;;;16.93;48.10;100463.42;106698;1255;68721;-83
2023/11/07 00:07:30;;;;;;;1.90;0.90;;;;;;;16.80;48.49;100463.73;106012;1255;73114;-82
2023/11/07 00:10:02;;;;;;;2.90;0.70;;;;;;;16.78;48.68;100463.51;105915;1259;61324;-82
2023/11/07 00:12:36;;;;;;;1.60;0.60;;;;;;;16.79;48.71;100465.10;106176;1254;61376;-87
2023/11/07 00:15:04;;;;;;;4.30;0.90;;;;;;;16.76;48.97;100465.09;106640;1258;74942;-87
2023/11/07 00:17:32;;;;;;;1.10;0.60;;;;;;;16.80;48.88;100469.20;106013;1255;68837;-86
2023/11/07 00:20:08;;;;;;;3.00;1.20;;;;;;;16.88;48.68;100471.30;105946;1262;72928;-82
2023/11/07 00:22:36;;;;;;;0.80;0.60;;;;;;;16.91;48.75;100474.45;105959;1254;61260;-83
2023/11/07 00:25:07;;;;;;;1.00;0.70;;;;;;;17.04;48.43;100476.73;106788;1258;61178;-86
2023/11/07 00:27:41;;;;;;;1.00;0.70;;;;;;;17.01;48.53;100475.75;106049;1255;73350;-82
2023/11/07 00:30:09;;;;;;;2.90;0.90;;;;;;;16.97;48.67;100479.86;106050;1254;67276;-82
2023/11/07 00:32:41;;;;;;;2.00;0.80;;;;;;;16.87;49.00;100477.43;106136;1255;72713;-86
2023/11/07 00:35:16;;;;;;;2.10;0.90;;;;;;;16.90;49.01;100480.23;106633;1254;61272;-86
2023/11/07 00:37:46;;;;;;;1.70;0.80;;;;;;;16.96;48.94;100479.44;106172;1254;61302;-87
2023/11/07 00:40:17;;;;;;;0.90;0.50;;;;;;;16.91;49.18;100482.67;106171;1254;74687;-86
2023/11/07 00:42:51;;;;;;;1.20;0.90;;;;;;;16.94;49.28;100480.32;106027;1257;68710;-84
2023/11/07 00:45:23;;;;;;;4.20;1.00;;;;;;;16.90;49.35;100483.96;106576;1254;72978;-87
2023/11/07 00:47:57;;;;;;;;;;;;;;;16.92;49.30;100482.97;106017;1254;61298;-83
2023/11/07 00:50:34;;;;;;;1.70;1.10;;;;;;;17.00;49.33;100487.52;106086;1255;61332;-82
2023/11/07 00:53:04;;;;;;;1.10;0.70;;;;;;;17.06;49.14;100488.52;106115;1255;74615;-86
2023/11/07 00:55:33;;;;;;;1.00;0.70;;;;;;;17.15;49.09;100496.36;106608;1256;67117;-83
2023/11/07 00:58:05;;;;;;;1.30;0.80;;;;;;;17.12;49.13;100494.98;106117;1255;72527;-82
2023/11/07 01:00:41;;;;;;;1.10;0.80;;;;;;;17.09;49.16;100497.01;106157;1256;61415;-86
2023/11/07 01:03:10;;;;;;;1.00;0.90;;;;;;;17.18;49.25;100497.13;105953;1254;61621;-83
2023/11/07 01:05:44;;;;;;;1.00;0.70;;;;;;;17.31;48.99;100499.98;106912;1254;73705;-82
2023/11/07 01:08:14;;;;;;;1.80;1.10;;;;;;;17.37;48.87;100500.13;105931;1260;70632;-85
2023/11/07 01:10:46;;;;;;;1.90;0.80;;;;;;;17.45;48.67;100497.48;106021;1256;71169;-82
2023/11/07 01:13:19;;;;;;;3.60;1.20;;;;;;;17.43;48.71;100501.65;106156;1254;61290;-86
2023/11/07 01:15:51;;;;;;;1.50;1.00;;;;;;;17.45;48.59;100502.48;106539;1254;61341;-86
2023/11/07 01:18:26;;;;;;;4.10;1.10;;;;;;;17.40;48.67;100499.70;106159;1260;74660;-85
2023/11/07 01:20:57;;;;;;;2.10;1.10;;;;;;;17.27;48.88;100502.65;105988;1260;67133;-86
2023/11/07 01:23:29;;;;;;;3.80;1.30;;;;;;;17.14;49.32;100508.45;105902;1257;72715;-86
2023/11/07 01:26:09;;;;;;;2.40;1.10;;;;;;;17.16;49.35;100504.19;106364;1254;61652;-86
2023/11/07 01:28:38;;;;;;;1.50;1.00;;;;;;;16.97;49.90;100516.40;106038;1256;61213;-87
2023/11/07 01:31:10;;;;;;;2.00;1.20;;;;;;;17.04;49.91;100513.43;106043;1255;73496;-87
2023/11/07 01:33:43;;;;;;;2.00;1.30;;;;;;;17.10;49.86;100517.82;105946;1260;67149;-83
2023/11/07 01:36:14;;;;;;;2.60;1.30;;;;;;;17.11;49.66;100515.81;106539;1255;72684;-83
2023/11/07 01:38:46;;;;;;;2.50;1.30;;;;;;;17.21;49.58;100515.70;105992;1254;61251;-87
2023/11/07 01:41:21;;;;;;;2.80;1.30;;;;;;;17.15;49.54;100524.41;105986;1256;61221;-87
2023/11/07 01:43:51;;;;;;;2.10;1.30;;;;;;;16.97;49.95;100520.27;105970;1258;74661;-82
2023/11/07 01:46:25;;;;;;;5.70;1.00;;;;;;;16.85;50.29;100525.84;106571;1254;67123;-87
2023/11/07 01:48:55;;;;;;;3.10;1.40;;;;;;;16.85;50.27;100531.95;105980;1254;72721;-84
2023/11/07 01:51:26;;;;;;;4.30;1.30;;;;;;;16.79;50.35;100536.17;106022;1260;61242;-83
2023/11/07 01:53:59;;;;;;;3.80;1.20;;;;;;;16.73;50.49;100545.15;105961;1255;61358;-87
2023/11/07 01:56:31;;;;;;;2.80;1.40;;;;;;;16.76;50.50;100547.66;106356;1263;73418;-87
2023/11/07 01:59:03;;;;;;;3.40;1.10;;;;;;;16.78;50.42;100549.27;106111;1255;67107;-83
2023/11/07 02:01:37;;;;;;;3.50;1.30;;;;;;;16.53;51.11;100550.70;106117;1254;72731;-87
2023/11/07 02:04:08;;;;;;;1.70;1.10;;;;;;;16.55;51.35;100555.45;106495;1254;61328;-87
2023/11/07 02:06:46;;;;;;;3.80;1.30;;;;;;;16.26;52.34;100555.88;106089;1254;61377;-88
2023/11/07 02:09:22;;;;;;;2.80;1.40;;;;;;;16.32;52.52;100554.51;106089;1254;72375;-83
2023/11/07 02:11:50;;;;;;;3.40;1.20;;;;;;;16.31;52.62;100560.10;105909;1264;68380;-84
2023/11/07 02:14:29;;;;;;;4.00;1.30;;;;;;;16.21;52.98;100561.68;106431;1254;71844;-83
2023/11/07 02:17:04;;;;;;;3.80;1.40;;;;;;;16.24;53.10;100561.83;106047;1254;61301;-85
2023/11/07 02:19:34;;;;;;;2.20;1.30;;;;;;;16.42;52.50;100560.27;106014;1254;61193;-87
2023/11/07 02:22:12;;;;;;;3.10;1.40;;;;;;;16.44;52.50;100561.49;105981;1255;73440;-86
2023/11/07 02:24:49;;;;;;;3.90;1.10;;;;;;;16.24;53.07;100556.70;106478;1256;68746;-82
2023/11/07 02:27:17;;;;;;;2.20;1.40;;;;;;;16.36;52.97;100557.48;106045;1254;71450;-83
2023/11/07 02:29:50;;;;;;;1.90;1.20;;;;;;;16.30;53.01;100555.67;106229;1256;61340;-83
2023/11/07 02:32:29;;;;;;;3.70;1.50;;;;;;;16.29;53.20;100564.17;106092;1255;61452;-86
2023/11/07 02:35:00;;;;;;;3.90;1.40;;;;;;;16.25;53.36;100573.45;106848;1254;73415;-83
2023/11/07 02:37:33;;;;;;;1.70;1.30;;;;;;;16.25;53.65;100577.19;106132;1254;68740;-82
2023/11/07 02:40:09;;;;;;;2.20;1.50;;;;;;;16.27;53.81;100576.09;106119;1254;71450;-84
2023/11/07 02:42:40;;;;;;;3.00;1.20;;;;;;;16.27;53.87;100582.38;106074;1258;61332;-85
2023/11/07 02:45:12;;;;;;;2.80;1.30;;;;;;;16.20;54.19;100592.52;106549;1255;61350;-82
2023/11/07 02:47:43;;;;;;;2.50;1.40;;;;;;;16.07;54.58;100587.27;105884;1256;73383;-83
2023/11/07 02:50:17;;;;;;;2.80;1.40;;;;;;;16.08;54.78;100591.10;105992;1255;68375;-86
2023/11/07 02:52:48;;;;;;;2.60;1.40;;;;;;;16.16;54.74;100590.41;106219;1260;72787;-86
2023/11/07 02:55:23;;;;;;;2.30;1.40;;;;;;;16.18;54.68;100605.55;106410;1254;61389;-82
2023/11/07 02:57:57;;;;;;;2.50;1.40;;;;;;;16.06;55.07;100610.67;105943;1254;61339;-86
2023/11/07 03:00:26;;;;;;;2.60;1.30;;;;;;;16.01;55.20;100614.44;106015;1260;74667;-82
2023/11/07 03:02:55;;;;;;;4.30;1.40;;;;;;;15.80;56.35;100617.17;106001;1254;68354;-86
2023/11/07 03:05:25;;;;;;;3.40;1.20;;;;;;;15.79;56.80;100623.80;106735;1255;72298;-83
2023/11/07 03:07:57;;;;;;;2.60;1.20;;;;;;;15.79;57.00;100623.84;106039;1255;61268;-82
2023/11/07 03:10:25;;;;;;;2.00;1.10;;;;;;;15.77;57.42;100627.55;106199;1254;61190;-86
2023/11/07 03:12:55;;;;;;;3.10;1.70;;;;;;;15.82;57.38;100626.66;105975;1255;74603;-82
2023/11/07 03:15:33;;;;;;;3.10;1.50;;;;;;;15.93;57.14;100622.02;106411;1255;68725;-87
2023/11/07 03:18:07;;;;;;;2.60;1.30;;;;;;;15.99;57.00;100624.40;106083;1256;72126;-83
2023/11/07 03:20:38;;;;;;;3.30;1.20;;;;;;;16.08;56.50;100623.55;105974;1255;61340;-86
2023/11/07 03:23:13;;;;;;;3.30;1.60;;;;;;;16.08;56.21;100627.13;106109;1258;61117;-86
2023/11/07 03:25:40;;;;;;;2.70;1.40;;;;;;;16.00;56.52;100630.66;106599;1254;74664;-86
2023/11/07 03:28:20;;;;;;;4.10;1.20;;;;;;;16.01;56.43;100631.90;106121;1254;67420;-82
2023/11/07 03:30:48;;;;;;;2.00;1.40;;;;;;;16.00;56.57;100629.85;106226;1258;70330;-82
2023/11/07 03:33:17;;;;;;;2.80;1.50;;;;;;;15.95;56.76;100635.36;106039;1256;61756;-83
2023/11/07 03:35:51;;;;;;;5.70;1.20;;;;;;;15.99;56.82;100643.38;106335;1254;61234;-83
2023/11/07 03:38:19;;;;;;;2.70;1.40;;;;;;;16.01;56.64;100643.86;105977;1256;74695;-85
2023/11/07 03:40:47;;;;;;;2.80;1.50;;;;;;;15.99;56.72;100645.31;106045;1254;68571;-87
2023/11/07 03:43:16;;;;;;;3.70;1.20;;;;;;;15.99;56.69;100655.55;106100;1256;72651;-82
2023/11/07 03:45:50;;;;;;;4.30;1.40;;;;;;;15.95;56.72;100655.74;106677;1254;61294;-82
2023/11/07 03:48:18;;;;;;;2.40;1.10;;;;;;;15.99;56.58;100659.31;105933;1256;61193;-83
2023/11/07 03:50:45;;;;;;;1.70;1.20;;;;;;;15.95;56.78;100655.65;105990;1254;74710;-82
2023/11/07 03:53:20;;;;;;;2.60;1.50;;;;;;;15.92;57.12;100658.64;106181;1256;67114;-85
2023/11/07 03:55:48;;;;;;;2.90;1.20;;;;;;;15.93;57.00;100659.88;106509;1256;71245;-85
2023/11/07 03:58:23;;;;;;;3.00;1.50;;;;;;;15.79;57.61;100662.39;106640;1257;61264;-82
2023/11/07 04:00:57;;;;;;;3.20;1.40;;;;;;;15.77;57.73;100667.00;106075;1254;61246;-82
2023/11/07 04:03:25;;;;;;;5.60;1.30;;;;;;;15.54;58.89;100663.38;106047;1260;73469;-86
2023/11/07 04:05:53;;;;;;;2.10;1.10;;;;;;;15.56;59.25;100668.59;106145;1258;68404;-82
2023/11/07 04:08:21;;;;;;;2.00;1.20;;;;;;;15.51;59.82;100668.96;106946;1255;72531;-82
2023/11/07 04:10:49;;;;;;;3.00;1.50;;;;;;;15.53;59.97;100671.83;106202;1256;61333;-87
2023/11/07 04:13:16;;;;;;;2.10;1.40;;;;;;;15.60;59.66;100679.63;106101;1255;61275;-86
2023/11/07 04:15:44;;;;;;;1.80;1.30;;;;;;;15.61;59.78;100681.31;106003;1256;73478;-82
2023/11/07 04:18:18;;;;;;;4.80;1.50;;;;;;;15.59;59.88;100685.49;106804;1254;68714;-87
2023/11/07 04:20:48;;;;;;;5.90;2.20;;;;;;;15.71;59.57;100692.69;106169;1257;71101;-87
2023/11/07 04:23:16;;;;;;;7.40;3.20;;;;;;;15.82;58.94;100693.36;105959;1256;61352;-86
2023/11/07 04:25:50;;;;;;;13.30;6.10;;;;;;;15.84;58.95;100699.30;105978;1254;61242;-81
2023/11/07 04:28:18;;;;;;;3.60;2.30;;;;;;;15.87;58.94;100705.70;106403;1260;74635;-88
2023/11/07 04:30:50;;;;;;;5.30;1.80;;;;;;;15.95;58.80;100708.34;106081;1254;68365;-82
2023/11/07 04:33:25;;;;;;;4.10;1.40;;;;;;;16.02;58.55;100707.91;106025;1254;72644;-82
2023/11/07 04:36:00;;;;;;;3.90;2.20;;;;;;;15.90;59.01;100711.69;106175;1256;61440;-86
2023/11/07 04:38:30;;;;;;;2.10;1.40;;;;;;;16.03;59.02;100712.08;106712;1254;60100;-82
2023/11/07 04:41:00;;;;;;;1.60;1.10;;;;;;;16.10;58.83;100710.13;106111;1254;74653;-83
2023/11/07 04:43:35;;;;;;;4.20;1.40;;;;;;;16.14;58.65;100717.56;106130;1258;67572;-86
2023/11/07 04:46:13;;;;;;;6.50;1.30;;;;;;;16.09;58.54;100717.36;105927;1256;72674;-82
2023/11/07 04:48:41;;;;;;;2.70;1.10;;;;;;;16.16;58.29;100719.11;106008;1254;61326;-87
2023/11/07 04:51:11;;;;;;;2.40;1.10;;;;;;;16.29;57.78;100722.01;107556;1258;60520;-87
2023/11/07 04:53:39;;;;;;;2.90;1.30;;;;;;;16.39;57.19;100726.77;105996;1255;74708;-87
2023/11/07 04:56:13;;;;;;;2.60;1.30;;;;;;;16.45;56.75;100728.48;106005;1260;68399;-86
2023/11/07 04:58:48;;;;;;;2.40;1.40;;;;;;;16.51;56.44;100734.46;106121;1258;72661;-83
2023/11/07 05:01:25;;;;;;;2.70;1.70;;;;;;;16.54;56.00;100735.82;106723;1254;61360;-86
2023/11/07 05:03:55;;;;;;;2.00;1.40;;;;;;;16.30;56.87;100743.45;105996;1255;61287;-87
2023/11/07 05:06:29;;;;;;;2.90;1.30;;;;;;;16.06;57.90;100750.60;106170;1254;73461;-86
2023/11/07 05:08:58;;;;;;;3.50;1.20;;;;;;;16.03;58.20;100754.63;106068;1256;67497;-87
2023/11/07 05:11:30;;;;;;;2.70;0.90;;;;;;;16.06;58.09;100755.11;106618;1260;71526;-86
2023/11/07 05:14:04;;;;;;;3.00;1.50;;;;;;;16.13;58.00;100758.10;106292;1257;61144;-82
2023/11/07 05:16:31;;;;;;;1.90;1.00;;;;;;;16.19;57.73;100760.79;106317;1254;61265;-83
2023/11/07 05:19:07;;;;;;;1.80;1.10;;;;;;;16.16;57.87;100764.45;105956;1258;74841;-82
2023/11/07 05:21:36;;;;;;;1.70;1.20;;;;;;;16.05;58.43;100761.35;106802;1255;70704;-83
2023/11/07 05:24:13;;;;;;;2.60;1.30;;;;;;;15.90;59.14;100768.56;106064;1261;72438;-82
2023/11/07 05:26:43;;;;;;;2.10;1.10;;;;;;;15.89;59.43;100774.02;106139;1258;61214;-83
2023/11/07 05:29:18;;;;;;;3.50;1.40;;;;;;;15.85;59.60;100781.02;106140;1256;61384;-82
2023/11/07 05:31:47;;;;;;;3.30;1.20;;;;;;;15.82;60.06;100793.76;106562;1254;73461;-82
2023/11/07 05:34:15;;;;;;;2.60;1.00;;;;;;;15.83;60.44;100792.25;106131;1258;67157;-83
2023/11/07 05:36:43;;;;;;;4.50;1.40;;;;;;;15.95;60.38;100794.32;106025;1258;72051;-83
2023/11/07 05:39:11;;;;;;;3.20;1.30;;;;;;;15.87;60.85;100793.44;106163;1258;61351;-86
2023/11/07 05:41:39;;;;;;;3.20;1.40;;;;;;;15.93;61.10;100795.58;106010;1254;61196;-87
2023/11/07 05:44:06;;;;;;;4.00;1.20;;;;;;;16.12;60.50;100802.07;106621;1255;72397;-83
2023/11/07 05:46:41;;;;;;;2.50;0.80;;;;;;;16.21;60.10;100804.63;106185;1255;68414;-86
2023/11/07 05:49:09;;;;;;;2.70;1.30;;;;;;;16.33;59.59;100810.55;106098;1254;71037;-83
2023/11/07 05:51:38;;;;;;;1.80;1.10;;;;;;;16.33;59.65;100816.29;106164;1256;61345;-82
2023/11/07 05:54:07;;;;;;;2.40;1.10;;;;;;;16.52;58.76;100814.20;106768;1255;61343;-86
2023/11/07 05:56:41;;;;;;;2.40;1.00;;;;;;;16.80;57.67;100819.56;106052;1255;74642;-82
2023/11/07 05:59:09;;;;;;;2.60;1.20;;;;;;;16.92;57.10;100822.52;106363;1254;67350;-86
2023/11/07 06:01:37;;;;;;;3.00;1.10;;;;;;;16.94;56.79;100825.52;106248;1254;72671;-86
2023/11/07 06:04:06;;;;;;;2.50;1.00;;;;;;;16.96;56.78;100827.61;106400;1254;61252;-83
2023/11/07 06:06:41;;;;;;;1.90;1.20;;;;;;;17.10;56.21;100818.73;106060;1260;61153;-86
2023/11/07 06:09:13;;;;;;;3.10;1.40;;;;;;;17.14;55.69;100825.13;106284;1254;74640;-82
2023/11/07 06:11:42;;;;;;;3.50;1.10;;;;;;;17.26;55.16;100823.68;105802;1262;68519;-86
2023/11/07 06:14:09;;;;;;;2.50;1.20;;;;;;;17.43;54.60;100824.13;106792;1256;71769;-83
2023/11/07 06:16:40;;;;;;;5.80;1.70;;;;;;;17.65;53.82;100824.64;105985;1255;61250;-86
2023/11/07 06:19:12;;;;;;;7.20;1.30;;;;;;;17.83;53.03;100822.06;105910;1255;61331;-86
2023/11/07 06:21:46;;;;;;;2.60;1.40;;;;;;;17.97;52.29;100826.23;106034;1258;72895;-87
2023/11/07 06:24:27;;;;;;;2.70;1.10;;;;;;;18.08;52.11;100825.64;106755;1254;66897;-86
2023/11/07 06:26:55;;;;;;;3.30;1.50;;;;;;;18.12;52.03;100832.88;105982;1256;71708;-86
2023/11/07 06:29:28;;;;;;;3.40;1.20;;;;;;;18.13;51.96;100836.33;106003;1256;61411;-83
2023/11/07 06:32:03;;;;;;;3.30;1.20;;;;;;;18.20;51.50;100840.48;106039;1254;61862;-83
2023/11/07 06:34:44;;;;;;;3.50;1.30;;;;;;;18.18;51.31;100844.23;106647;1254;74657;-87
2023/11/07 06:37:12;;;;;;;5.20;1.60;;;;;;;18.14;51.30;100846.16;105814;1258;67229;-87
2023/11/07 06:39:46;;;;;;;2.40;1.40;;;;;;;18.12;51.25;100848.05;106018;1255;72652;-86
2023/11/07 06:42:14;;;;;;;2.20;1.10;;;;;;;18.13;51.50;100852.30;105921;1258;61297;-83
2023/11/07 06:44:51;;;;;;;5.80;1.60;;;;;;;18.23;51.39;100856.73;106686;1260;61368;-86
2023/11/07 06:47:19;;;;;;;2.90;1.30;;;;;;;18.26;51.34;100857.35;106020;1256;73374;-83
2023/11/07 06:49:53;;;;;;;2.70;1.40;;;;;;;18.30;51.17;100857.30;105917;1261;68688;-88
2023/11/07 06:52:22;;;;;;;4.40;1.40;;;;;;;18.39;50.91;100862.02;105921;1256;72373;-86
2023/11/07 06:54:56;;;;;;;3.60;1.60;;;;;;;18.42;50.48;100862.30;106104;1256;61349;-83
2023/11/07 06:57:24;;;;;;;4.20;1.30;;;;;;;18.52;50.49;100865.77;106411;1255;61325;-83
2023/11/07 06:59:58;;;;;;;5.70;1.70;;;;;;;18.55;50.49;100866.76;106078;1256;72941;-82
2023/11/07 07:02:25;;;;;;;2.70;1.70;;;;;;;18.62;50.01;100861.75;105963;1255;69191;-82
2023/11/07 07:04:53;;;;;;;3.20;1.30;;;;;;;18.80;49.68;100867.41;106110;1256;72604;-85
2023/11/07 11:08:35;;;;;;;3.20;1.10;;;;;;;23.00;34.52;100935.24;106051;1257;61348;-87
2023/11/07 11:11:03;;;;;;;4.10;1.20;;;;;;;23.11;34.49;100934.28;107307;1260;61344;-88
2023/11/07 11:13:41;;;;;;;3.60;1.30;;;;;;;23.10;34.59;100934.75;106046;1257;74620;-88
2023/11/07 11:16:19;;;;;;;3.40;1.10;;;;;;;23.01;34.63;100935.80;106094;1261;68705;-83
2023/11/07 11:19:06;;;;;;;3.00;1.40;;;;;;;22.94;34.84;100938.38;107015;1258;75019;-87
2023/11/07 11:21:42;;;;;;;2.70;1.30;;;;;;;22.98;34.73;100929.10;106014;1257;61465;-86
2023/11/07 11:24:32;;;;;;;3.90;1.00;;;;;;;22.95;34.98;100926.55;106031;1254;62935;-83
2023/11/07 11:27:28;;;;;;;4.20;1.40;;;;;;;22.86;35.07;100929.39;106032;1258;77308;-82
2023/11/07 11:30:02;;;;;;;4.10;1.30;;;;;;;22.89;35.11;100930.57;107081;1256;70490;-86
2023/11/07 11:32:43;;;;;;;1.90;0.90;;;;;;;22.93;34.92;100930.05;105988;1256;74834;-87
2023/11/07 11:35:17;;;;;;;2.50;1.20;;;;;;;22.71;35.24;100931.60;106213;1259;64570;-88
2023/11/07 11:38:21;;;;;;;2.10;1.10;;;;;;;22.47;36.01;100933.32;106647;1256;61274;-88
2023/11/07 11:40:57;;;;;;;4.70;1.10;;;;;;;22.41;35.77;100939.02;106185;1256;75322;-88
2023/11/07 11:43:36;;;;;;;2.30;0.80;;;;;;;22.40;35.67;100932.87;106202;1258;69639;-88
2023/11/07 11:46:11;;;;;;;1.50;0.90;;;;;;;22.37;35.48;100940.65;106051;1258;73628;-87
2023/11/07 11:48:55;;;;;;;2.20;1.00;;;;;;;22.35;35.37;100934.28;106610;1260;62457;-82
2023/11/07 11:51:38;;;;;;;1.80;1.00;;;;;;;22.38;35.29;100938.04;106267;1260;61431;-82
2023/11/07 11:54:13;;;;;;;2.60;1.20;;;;;;;22.41;35.42;100937.25;106257;1256;76897;-78
2023/11/07 11:56:50;;;;;;;2.30;1.20;;;;;;;22.52;35.68;100934.45;106647;1256;68754;-83
2023/11/07 11:59:19;;;;;;;1.90;0.90;;;;;;;22.61;35.72;100935.13;106618;1256;73390;-78
2023/11/07 12:01:52;;;;;;;1.50;0.60;;;;;;;22.61;35.56;100931.40;106184;1260;61363;-83
2023/11/07 12:04:53;;;;;;;2.40;0.90;;;;;;;22.59;35.53;100927.97;106371;1257;61212;-83
2023/11/07 12:07:27;;;;;;;3.80;2.00;;;;;;;22.63;35.62;100932.95;106686;1256;77007;-83
2023/11/07 12:10:05;;;;;;;3.50;1.10;;;;;;;22.58;35.81;100929.06;106175;1256;70605;-79
2023/11/07 12:12:40;;;;;;;11.40;6.40;;;;;;;22.57;35.68;100930.77;105887;1256;73285;-78
2023/11/07 12:15:14;;;;;;;5.20;2.30;;;;;;;22.53;35.84;100929.69;106127;1259;62823;-79
2023/11/07 12:17:49;;;;;;;1.80;1.00;;;;;;;22.57;35.65;100933.88;106393;1256;61460;-78
2023/11/07 12:20:24;;;;;;;2.70;1.10;;;;;;;22.57;35.78;100933.73;106050;1257;75493;-79
2023/11/07 12:22:58;;;;;;;5.10;1.00;;;;;;;22.59;35.69;100935.46;105953;1256;66708;-78
2023/11/07 12:25:32;;;;;;;3.20;1.00;;;;;;;22.58;35.58;100933.19;106080;1260;73487;-85
2023/11/07 12:28:10;;;;;;;2.00;1.40;;;;;;;22.65;35.31;100933.50;106497;1258;61277;-84
2023/11/07 12:30:39;;;;;;;3.70;1.60;;;;;;;22.57;35.42;100930.38;106167;1260;61234;-84
2023/11/07 12:33:08;;;;;;;2.80;1.20;;;;;;;22.50;35.52;100931.59;105951;1256;75192;-78
2023/11/07 12:35:48;;;;;;;7.80;3.50;;;;;;;22.39;35.71;100932.33;106068;1254;71569;-78
2023/11/07 12:38:23;;;;;;;8.20;2.40;;;;;;;22.29;36.07;100938.96;106827;1254;74870;-78
2023/11/07 12:40:51;;;;;;;10.10;3.50;;;;;;;22.25;36.09;100937.70;106165;1260;61336;-84
2023/11/07 12:43:35;;;;;;;4.00;1.70;;;;;;;22.20;36.13;100936.10;106013;1260;61192;-84
2023/11/07 12:46:14;;;;;;;2.30;1.60;;;;;;;22.26;36.20;100937.34;106044;1265;76717;-86
2023/11/07 12:48:44;;;;;;;6.50;2.50;;;;;;;22.29;36.13;100941.49;106513;1259;71119;-86
2023/11/07 12:51:20;;;;;;;2.30;1.70;;;;;;;22.17;36.40;100937.39;106061;1256;73088;-86
2023/11/07 12:53:54;;;;;;;2.20;1.20;;;;;;;22.15;36.46;100940.42;106696;1260;62117;-85
2023/11/07 12:56:32;;;;;;;2.40;1.00;;;;;;;22.14;36.72;100942.00;106198;1259;61575;-86
2023/11/07 12:59:11;;;;;;;2.30;0.90;;;;;;;22.11;36.65;100945.29;107252;1254;74758;-84
2023/11/07 13:01:46;;;;;;;3.20;0.80;;;;;;;22.07;36.68;100940.16;106596;1256;67306;-84
2023/11/07 13:04:19;;;;;;;1.90;0.90;;;;;;;22.05;36.75;100939.14;106222;1257;72714;-84
2023/11/07 13:06:54;;;;;;;2.80;1.30;;;;;;;22.09;36.86;100936.11;106266;1259;61324;-84
2023/11/07 13:09:32;;;;;;;6.00;1.90;;;;;;;22.13;36.85;100936.32;106324;1259;61186;-84
2023/11/07 13:12:15;;;;;;;6.00;1.70;;;;;;;21.92;37.29;100934.41;107031;1260;75726;-84
2023/11/07 13:14:43;;;;;;;5.60;1.80;;;;;;;21.84;37.46;100933.08;106116;1259;68758;-84
2023/11/07 13:17:15;;;;;;;1.90;1.00;;;;;;;21.77;37.66;100934.29;106033;1259;72457;-84
2023/11/07 13:19:52;;;;;;;2.00;0.90;;;;;;;21.70;37.86;100931.65;106416;1256;61355;-83
2023/11/07 13:22:20;;;;;;;2.70;1.40;;;;;;;21.72;37.83;100935.77;106908;1259;61339;-84
2023/11/07 13:24:50;;;;;;;7.40;2.40;;;;;;;21.70;37.64;100933.01;106247;1259;74627;-82
2023/11/07 13:27:23;;;;;;;25.50;12.40;;;;;;;21.73;37.80;100935.63;106418;1259;69727;-83
2023/11/07 13:29:56;;;;;;;5.40;2.70;;;;;;;21.69;37.90;100934.73;106879;1259;72668;-82
2023/11/07 13:32:24;;;;;;;;;;;;;;;21.66;37.96;100932.95;106491;1262;61556;-83
2023/11/07 13:34:56;;;;;;;1.70;0.90;;;;;;;21.82;37.78;100935.17;106179;1260;62125;-83
2023/11/07 13:37:28;;;;;;;3.80;2.10;;;;;;;21.86;37.68;100934.44;106303;1257;76596;-84
2023/11/07 13:40:06;;;;;;;4.00;1.20;;;;;;;21.90;37.64;100936.88;106316;1260;69630;-84
2023/11/07 13:42:33;;;;;;;2.60;0.80;;;;;;;21.67;37.98;100938.63;106948;1254;74623;-83
2023/11/07 13:45:04;;;;;;;3.10;1.00;;;;;;;21.63;38.29;100938.63;106286;1261;61889;-84
2023/11/07 13:47:32;;;;;;;2.50;1.20;;;;;;;21.53;38.32;100938.35;106189;1254;61254;-83
2023/11/07 13:50:00;;;;;;;1.50;1.10;;;;;;;21.46;38.52;100937.52;106120;1258;74665;-83
2023/11/07 13:52:28;;;;;;;2.70;0.90;;;;;;;21.45;38.59;100937.98;106817;1261;68906;-83
2023/11/07 13:54:59;;;;;;;1.90;0.90;;;;;;;21.39;38.61;100940.47;106252;1257;73364;-84
2023/11/07 13:57:28;;;;;;;1.40;1.00;;;;;;;21.39;38.63;100935.45;106214;1258;61376;-83
2023/11/07 13:59:58;;;;;;;4.80;2.40;;;;;;;21.30;38.84;100936.86;106173;1260;61210;-83
2023/11/07 14:02:30;;;;;;;3.60;1.70;;;;;;;21.28;38.98;100939.38;106169;1259;76862;-84
2023/11/07 14:05:02;;;;;;;2.80;1.60;;;;;;;21.17;39.21;100944.23;106709;1254;70223;-84
2023/11/07 14:07:35;;;;;;;;;;;;;;;21.01;39.59;100946.50;106427;1257;73830;-85
2023/11/07 14:10:07;;;;;;;3.80;1.50;;;;;;;20.97;39.50;100943.95;106221;1254;61465;-84
2023/11/07 14:12:40;;;;;;;2.40;0.90;;;;;;;20.95;39.54;100943.61;106330;1258;61912;-84
2023/11/07 14:15:14;;;;;;;3.50;0.90;;;;;;;20.85;39.72;100942.77;106842;1254;75247;-84
2023/11/07 14:17:46;;;;;;;4.90;1.00;;;;;;;20.73;39.87;100943.23;106341;1263;70870;-83
2023/11/07 14:20:17;;;;;;;3.20;1.00;;;;;;;20.61;40.19;100952.12;106576;1257;73884;-83
2023/11/07 14:22:53;;;;;;;3.40;1.60;;;;;;;20.56;40.26;100946.91;106531;1257;62124;-83
2023/11/07 14:25:29;;;;;;;1.70;1.30;;;;;;;20.51;40.40;100942.29;106939;1260;61298;-84
2023/11/07 14:28:02;;;;;;;5.30;2.00;;;;;;;20.44;40.36;100942.28;106315;1254;75546;-82
2023/11/07 14:30:45;;;;;;;2.40;1.30;;;;;;;20.37;40.52;100946.92;106167;1255;71354;-83
2023/11/07 14:33:15;;;;;;;2.20;1.10;;;;;;;20.24;40.59;100950.27;106140;1254;75004;-85
2023/11/07 14:35:45;;;;;;;2.40;1.20;;;;;;;20.12;40.82;100950.66;106586;1254;61309;-83
2023/11/07 14:38:15;;;;;;;1.30;0.80;;;;;;;20.05;40.96;100955.40;106269;1260;62046;-83
2023/11/07 14:40:46;;;;;;;4.70;1.00;;;;;;;19.95;41.28;100952.20;106217;1255;75577;-83
2023/11/07 14:43:20;;;;;;;1.90;0.90;;;;;;;19.82;41.34;100953.63;106466;1254;68411;-83
2023/11/07 14:45:51;;;;;;;3.40;1.20;;;;;;;19.76;41.62;100959.09;106466;1260;72678;-83
2023/11/07 14:48:21;;;;;;;2.90;0.70;;;;;;;19.65;41.69;100960.89;106891;1259;61264;-84
2023/11/07 14:50:53;;;;;;;2.20;1.00;;;;;;;19.54;41.92;100958.25;106617;1254;62410;-83
2023/11/07 14:53:27;;;;;;;3.50;1.10;;;;;;;19.34;42.41;100960.13;106280;1260;75345;-83
2023/11/07 14:56:01;;;;;;;4.40;1.20;;;;;;;19.15;42.65;100964.87;106236;1257;71531;-84
2023/11/07 14:58:31;;;;;;;3.70;1.00;;;;;;;18.98;43.05;100964.46;106975;1255;71514;-85
2023/11/07 15:01:00;;;;;;;1.10;0.80;;;;;;;18.78;43.58;100964.77;106184;1259;61541;-85
2023/11/07 15:03:33;;;;;;;2.00;1.10;;;;;;;18.53;44.08;100967.52;106145;1256;61370;-84
2023/11/07 15:06:10;;;;;;;3.10;1.00;;;;;;;18.42;44.47;100970.05;106255;1260;76019;-85
2023/11/07 15:08:41;;;;;;;5.60;1.50;;;;;;;18.34;44.66;100971.61;107163;1254;69455;-85
2023/11/07 15:11:14;;;;;;;3.50;1.20;;;;;;;18.15;45.18;100972.95;106320;1258;75282;-85
2023/11/07 15:13:42;;;;;;;2.40;1.00;;;;;;;17.88;45.73;100973.74;106366;1260;62809;-85
2023/11/07 15:16:10;;;;;;;1.40;0.80;;;;;;;17.71;46.30;100977.94;106322;1254;61260;-84
2023/11/07 15:18:38;;;;;;;3.10;0.80;;;;;;;17.62;46.80;100976.44;106995;1254;74124;-85
2023/11/07 15:21:12;;;;;;;4.20;1.00;;;;;;;17.53;47.26;100975.33;106563;1254;69359;-85
2023/11/07 15:23:44;;;;;;;4.00;1.50;;;;;;;17.44;47.69;100977.38;106220;1256;74812;-85
2023/11/07 15:26:18;;;;;;;2.10;1.00;;;;;;;17.43;47.94;100981.20;106215;1254;61495;-82
2023/11/07 15:28:48;;;;;;;2.30;0.80;;;;;;;17.32;48.40;100979.64;106652;1260;61299;-82
2023/11/07 15:31:25;;;;;;;2.10;1.10;;;;;;;17.20;48.81;100981.01;106806;1254;75740;-82
2023/11/07 15:33:56;;;;;;;1.60;0.80;;;;;;;17.19;49.20;100984.67;106182;1254;71005;-83
2023/11/07 15:36:24;;;;;;;2.70;0.70;;;;;;;17.14;49.50;100988.48;106172;1260;73885;-82
2023/11/07 15:38:55;;;;;;;2.00;0.90;;;;;;;17.10;49.79;100991.34;106507;1258;63770;-83
2023/11/07 15:41:25;;;;;;;2.10;0.80;;;;;;;17.03;50.12;100988.67;106245;1254;61904;-83